Time;durP1;ratioP1;P1;durP2;ratioP2;P2;SDS_P1;SDS_P2;PMS_P1;PMS_P2;Temp;Humidity;BMP_temperature;BMP_pressure;BME280_temperature;BME280_humidity;BME280_pressure;Samples;Min_cycle;Max_cycle;Signal;HPM_P1;HPM_P2
2022/08/21 00:00:12;;;;;;;6.20;1.30;;;;;;;;;;5048525;28;20031;-66
2022/08/21 00:02:44;;;;;;;3.40;1.00;;;;;;;;;;5034620;28;20033;-65
2022/08/21 00:05:10;;;;;;;5.25;1.08;;;;;;;;;;5041554;28;20036;-66
2022/08/21 00:07:36;;;;;;;4.95;1.55;;;;;;;;;;5039277;28;20056;-66
2022/08/21 00:10:04;;;;;;;4.43;1.20;;;;;;;;;;5039144;28;20458;-67
2022/08/21 00:12:30;;;;;;;4.28;1.38;;;;;;;;;;5037173;28;20036;-66
2022/08/21 00:14:57;;;;;;;3.83;1.20;;;;;;;;;;5042725;28;20028;-67
2022/08/21 00:17:23;;;;;;;4.65;1.10;;;;;;;;;;5045653;28;20598;-67
2022/08/21 00:19:49;;;;;;;3.78;0.93;;;;;;;;;;5042646;28;20035;-67
2022/08/21 00:22:15;;;;;;;5.78;1.20;;;;;;;;;;5043210;28;20387;-67
2022/08/21 00:24:41;;;;;;;4.15;1.20;;;;;;;;;;5031867;28;20622;-67
2022/08/21 00:27:07;;;;;;;6.93;1.48;;;;;;;;;;5040869;28;20355;-68
2022/08/21 00:29:33;;;;;;;5.97;1.30;;;;;;;;;;5037598;28;20672;-69
2022/08/21 00:32:00;;;;;;;5.05;1.20;;;;;;;;;;5039298;28;20659;-69
2022/08/21 00:34:26;;;;;;;2.38;0.90;;;;;;;;;;5035425;28;20417;-68
2022/08/21 00:36:52;;;;;;;3.28;1.15;;;;;;;;;;5040463;28;20473;-69
2022/08/21 00:39:18;;;;;;;2.55;1.00;;;;;;;;;;5040877;28;20024;-68
2022/08/21 00:41:44;;;;;;;4.97;1.27;;;;;;;;;;5032406;28;20044;-68
2022/08/21 00:44:11;;;;;;;4.28;1.00;;;;;;;;;;5046485;28;20654;-68
2022/08/21 00:46:38;;;;;;;3.90;1.00;;;;;;;;;;5040694;28;20454;-63
2022/08/21 00:49:05;;;;;;;4.32;0.95;;;;;;;;;;5044408;28;20525;-63
2022/08/21 00:51:39;;;;;;;5.18;1.13;;;;;;;;;;5036291;28;20066;-63
2022/08/21 00:54:06;;;;;;;4.25;1.20;;;;;;;;;;5045621;28;20025;-61
2022/08/21 00:56:32;;;;;;;3.28;1.10;;;;;;;;;;5038911;28;20028;-62
2022/08/21 00:59:00;;;;;;;3.72;0.82;;;;;;;;;;5043017;28;20123;-62
2022/08/21 01:01:27;;;;;;;3.20;0.90;;;;;;;;;;5039676;28;20043;-62
2022/08/21 01:03:53;;;;;;;3.55;1.05;;;;;;;;;;5041858;28;20032;-62
2022/08/21 01:06:19;;;;;;;7.72;0.95;;;;;;;;;;5039750;28;20040;-62
2022/08/21 01:08:45;;;;;;;5.43;0.95;;;;;;;;;;5043620;28;20032;-63
2022/08/21 01:11:11;;;;;;;4.50;1.00;;;;;;;;;;5044076;28;20024;-62
2022/08/21 01:13:44;;;;;;;2.75;0.82;;;;;;;;;;5041916;28;20055;-62
2022/08/21 01:16:10;;;;;;;4.07;1.15;;;;;;;;;;5037136;28;20036;-62
2022/08/21 01:18:36;;;;;;;4.82;1.15;;;;;;;;;;5040672;28;20540;-63
2022/08/21 01:21:07;;;;;;;3.75;0.80;;;;;;;;;;5042719;28;20024;-62
2022/08/21 01:23:34;;;;;;;5.30;1.10;;;;;;;;;;5036046;28;20036;-62
2022/08/21 01:26:00;;;;;;;3.55;0.90;;;;;;;;;;5041239;28;20028;-62
2022/08/21 01:28:27;;;;;;;5.90;1.10;;;;;;;;;;5037613;28;20362;-62
2022/08/21 01:30:54;;;;;;;5.20;1.10;;;;;;;;;;5045663;28;20469;-62
2022/08/21 01:33:22;;;;;;;5.53;1.27;;;;;;;;;;5039541;28;20056;-62
2022/08/21 01:35:49;;;;;;;3.30;0.90;;;;;;;;;;5041974;28;20475;-62
2022/08/21 01:38:15;;;;;;;2.80;0.98;;;;;;;;;;5044528;28;20036;-62
2022/08/21 01:40:41;;;;;;;3.50;0.98;;;;;;;;;;5035277;28;20186;-62
2022/08/21 01:43:08;;;;;;;2.75;1.00;;;;;;;;;;5040041;28;20473;-62
2022/08/21 01:45:34;;;;;;;4.25;1.02;;;;;;;;;;5039156;28;20461;-62
2022/08/21 01:48:03;;;;;;;4.78;1.50;;;;;;;;;;5041738;28;20040;-62
2022/08/21 01:50:30;;;;;;;3.78;1.20;;;;;;;;;;5041440;28;20800;-62
2022/08/21 01:52:56;;;;;;;5.05;1.23;;;;;;;;;;5043246;28;20477;-62
2022/08/21 01:55:22;;;;;;;3.83;0.90;;;;;;;;;;5042878;28;20024;-62
2022/08/21 01:57:50;;;;;;;3.80;1.10;;;;;;;;;;5040463;28;20149;-62
2022/08/21 02:00:18;;;;;;;6.22;0.98;;;;;;;;;;5040463;28;20086;-62
2022/08/21 02:02:45;;;;;;;4.18;1.30;;;;;;;;;;5041901;28;20509;-62
2022/08/21 02:05:12;;;;;;;3.28;1.00;;;;;;;;;;5043929;28;20063;-62
2022/08/21 02:07:39;;;;;;;2.80;0.98;;;;;;;;;;5038168;28;20437;-62
2022/08/21 02:10:06;;;;;;;2.85;0.90;;;;;;;;;;5040020;28;20490;-63
2022/08/21 02:12:32;;;;;;;2.08;0.80;;;;;;;;;;5037948;28;20032;-63
2022/08/21 02:14:59;;;;;;;5.60;1.20;;;;;;;;;;5042031;28;20138;-63
2022/08/21 02:17:25;;;;;;;5.97;1.30;;;;;;;;;;5039672;28;20048;-62
2022/08/21 02:19:51;;;;;;;5.43;1.35;;;;;;;;;;5038484;28;20032;-63
2022/08/21 02:22:17;;;;;;;3.95;0.90;;;;;;;;;;5037686;28;20037;-63
2022/08/21 02:24:43;;;;;;;2.75;0.90;;;;;;;;;;5041264;28;20040;-63
2022/08/21 02:27:09;;;;;;;3.47;1.10;;;;;;;;;;5043455;28;21308;-63
2022/08/21 02:29:36;;;;;;;2.78;1.00;;;;;;;;;;5037846;28;20025;-63
2022/08/21 02:32:02;;;;;;;5.60;0.90;;;;;;;;;;5046945;28;20748;-63
2022/08/21 02:34:28;;;;;;;2.38;0.70;;;;;;;;;;5038215;28;20552;-63
2022/08/21 02:36:54;;;;;;;2.00;0.88;;;;;;;;;;5041801;28;20020;-63
2022/08/21 02:39:20;;;;;;;6.70;1.05;;;;;;;;;;5037253;28;20032;-63
2022/08/21 02:41:46;;;;;;;2.63;1.00;;;;;;;;;;5038559;28;20608;-63
2022/08/21 02:44:12;;;;;;;4.32;1.00;;;;;;;;;;5044328;28;20082;-63
2022/08/21 02:46:38;;;;;;;2.88;1.10;;;;;;;;;;5038169;28;21960;-63
2022/08/21 02:49:05;;;;;;;4.35;1.02;;;;;;;;;;5039992;28;20055;-63
2022/08/21 02:51:31;;;;;;;2.97;0.85;;;;;;;;;;5039241;28;20044;-63
2022/08/21 02:53:57;;;;;;;3.28;0.82;;;;;;;;;;5043308;28;20063;-63
2022/08/21 02:56:23;;;;;;;3.58;0.75;;;;;;;;;;5040749;28;20032;-63
2022/08/21 02:58:51;;;;;;;3.00;0.80;;;;;;;;;;5041338;28;20036;-63
2022/08/21 03:01:17;;;;;;;1.77;0.60;;;;;;;;;;5041374;28;20029;-63
2022/08/21 03:03:44;;;;;;;2.45;0.70;;;;;;;;;;5034471;28;20043;-63
2022/08/21 03:06:13;;;;;;;2.65;0.70;;;;;;;;;;5037381;28;20388;-63
2022/08/21 03:08:39;;;;;;;3.35;0.82;;;;;;;;;;5043968;28;20524;-63
2022/08/21 03:11:05;;;;;;;2.35;0.70;;;;;;;;;;5040073;28;20024;-63
2022/08/21 03:13:32;;;;;;;1.63;0.60;;;;;;;;;;5034927;28;20088;-63
2022/08/21 03:15:58;;;;;;;1.27;0.50;;;;;;;;;;5039404;28;20131;-63
2022/08/21 03:18:24;;;;;;;2.75;0.68;;;;;;;;;;5035823;28;20494;-63
2022/08/21 03:20:54;;;;;;;2.30;0.65;;;;;;;;;;5039503;28;20094;-63
2022/08/21 03:23:21;;;;;;;3.40;0.73;;;;;;;;;;5039542;28;20028;-63
2022/08/21 03:25:48;;;;;;;1.88;0.63;;;;;;;;;;5041190;28;20032;-63
2022/08/21 03:28:19;;;;;;;1.35;0.57;;;;;;;;;;5041570;28;20044;-63
2022/08/21 03:30:47;;;;;;;2.90;0.70;;;;;;;;;;5046257;28;20028;-63
2022/08/21 03:33:13;;;;;;;1.67;0.68;;;;;;;;;;5040281;28;20033;-63
2022/08/21 03:35:40;;;;;;;2.17;0.70;;;;;;;;;;5039631;28;20731;-63
2022/08/21 03:38:06;;;;;;;2.03;0.50;;;;;;;;;;5042129;28;20142;-63
2022/08/21 03:40:32;;;;;;;2.67;0.60;;;;;;;;;;5039202;28;20028;-63
2022/08/21 03:42:59;;;;;;;2.75;0.70;;;;;;;;;;5041466;28;20669;-63
2022/08/21 03:45:25;;;;;;;3.38;0.73;;;;;;;;;;5037811;28;20434;-63
2022/08/21 03:47:57;;;;;;;2.45;0.60;;;;;;;;;;5047345;28;20047;-63
2022/08/21 03:50:27;;;;;;;3.97;0.70;;;;;;;;;;5045410;28;20063;-63
2022/08/21 03:52:53;;;;;;;2.83;0.80;;;;;;;;;;5047381;28;20415;-63
2022/08/21 03:55:19;;;;;;;1.40;0.60;;;;;;;;;;5043676;28;20340;-63
2022/08/21 03:57:46;;;;;;;5.22;0.60;;;;;;;;;;5041921;28;20071;-63
2022/08/21 04:00:14;;;;;;;2.90;0.70;;;;;;;;;;5048665;28;20048;-63
2022/08/21 04:02:40;;;;;;;4.15;0.70;;;;;;;;;;5040227;28;20401;-63
2022/08/21 04:05:07;;;;;;;2.83;0.73;;;;;;;;;;5042443;28;20142;-63
2022/08/21 04:07:33;;;;;;;1.83;0.55;;;;;;;;;;5037846;28;20044;-63
2022/08/21 04:10:00;;;;;;;4.20;0.75;;;;;;;;;;5045318;28;20135;-63
2022/08/21 04:12:26;;;;;;;1.60;0.75;;;;;;;;;;5038937;28;20419;-63
2022/08/21 04:14:52;;;;;;;1.95;0.77;;;;;;;;;;5044660;28;20056;-63
2022/08/21 04:17:18;;;;;;;1.95;0.60;;;;;;;;;;5043883;28;20025;-63
2022/08/21 04:19:44;;;;;;;2.53;0.70;;;;;;;;;;5039439;28;20040;-63
2022/08/21 04:22:10;;;;;;;2.15;0.70;;;;;;;;;;5044328;28;20028;-63
2022/08/21 04:24:37;;;;;;;1.38;0.60;;;;;;;;;;5038486;28;20426;-63
2022/08/21 04:27:03;;;;;;;2.17;0.80;;;;;;;;;;5045377;28;20036;-63
2022/08/21 04:29:29;;;;;;;2.00;0.70;;;;;;;;;;5040673;28;20139;-61
2022/08/21 04:31:55;;;;;;;3.90;0.95;;;;;;;;;;5044488;28;20032;-63
2022/08/21 04:34:21;;;;;;;3.47;0.75;;;;;;;;;;5041745;28;20070;-62
2022/08/21 04:36:47;;;;;;;1.67;0.73;;;;;;;;;;5039051;28;20050;-62
2022/08/21 04:39:13;;;;;;;3.08;0.90;;;;;;;;;;5046146;28;20584;-62
2022/08/21 04:41:41;;;;;;;2.30;0.80;;;;;;;;;;5038618;28;20033;-64
2022/08/21 04:44:08;;;;;;;1.80;0.77;;;;;;;;;;5041978;28;20086;-62
2022/08/21 04:46:34;;;;;;;1.83;0.70;;;;;;;;;;5036706;28;20486;-62
2022/08/21 04:49:01;;;;;;;4.28;0.90;;;;;;;;;;5045370;28;20116;-62
2022/08/21 04:51:32;;;;;;;8.40;0.93;;;;;;;;;;5037668;28;20581;-62
2022/08/21 04:54:03;;;;;;;4.45;0.80;;;;;;;;;;5040154;28;20041;-62
2022/08/21 04:56:36;;;;;;;2.45;0.70;;;;;;;;;;5037592;28;20032;-62
2022/08/21 04:59:04;;;;;;;2.95;0.80;;;;;;;;;;5041642;28;20054;-62
2022/08/21 05:01:32;;;;;;;3.20;0.75;;;;;;;;;;5040461;28;21188;-62
2022/08/21 05:03:59;;;;;;;3.72;0.90;;;;;;;;;;5041955;28;20362;-62
2022/08/21 05:06:26;;;;;;;3.22;0.73;;;;;;;;;;5040240;28;20040;-62
2022/08/21 05:08:53;;;;;;;3.25;0.88;;;;;;;;;;5041810;28;20056;-62
2022/08/21 05:11:19;;;;;;;4.18;0.95;;;;;;;;;;5042369;28;20028;-62
2022/08/21 05:13:46;;;;;;;6.20;1.00;;;;;;;;;;5038447;28;20032;-62
2022/08/21 05:16:12;;;;;;;6.18;1.00;;;;;;;;;;5040562;28;20137;-62
2022/08/21 05:18:38;;;;;;;;;;;;;;;;;;5037742;28;20024;-62
2022/08/21 05:21:04;;;;;;;2.72;0.80;;;;;;;;;;5042067;28;19919;-62
2022/08/21 05:23:32;;;;;;;4.35;1.00;;;;;;;;;;5038179;28;20155;-62
2022/08/21 05:25:58;;;;;;;2.42;0.90;;;;;;;;;;5060350;28;20024;-62
2022/08/21 05:28:25;;;;;;;5.97;0.90;;;;;;;;;;5037600;28;20068;-62
2022/08/21 05:30:51;;;;;;;5.15;0.90;;;;;;;;;;5042936;28;20137;-63
2022/08/21 05:33:17;;;;;;;3.50;0.77;;;;;;;;;;5040583;28;20035;-62
2022/08/21 05:35:44;;;;;;;4.28;1.00;;;;;;;;;;5037656;28;22846;-62
2022/08/21 05:38:10;;;;;;;3.92;0.88;;;;;;;;;;5043287;28;20033;-63
2022/08/21 05:40:37;;;;;;;4.65;0.90;;;;;;;;;;5034110;28;20028;-63
2022/08/21 05:43:03;;;;;;;3.05;0.93;;;;;;;;;;5034179;28;20036;-63
2022/08/21 05:45:30;;;;;;;3.38;0.80;;;;;;;;;;5037959;28;20111;-62
2022/08/21 05:47:57;;;;;;;2.38;0.90;;;;;;;;;;5054880;28;20939;-63
2022/08/21 05:50:23;;;;;;;2.03;0.70;;;;;;;;;;5038425;28;20040;-63
2022/08/21 05:52:49;;;;;;;2.97;0.80;;;;;;;;;;5045231;28;20052;-62
2022/08/21 05:55:15;;;;;;;2.60;0.68;;;;;;;;;;5040853;28;20024;-63
2022/08/21 05:57:41;;;;;;;2.30;0.70;;;;;;;;;;5039373;28;20769;-65
2022/08/21 06:00:08;;;;;;;;;;;;;;;;;;5043566;28;20032;-63
2022/08/21 06:02:34;;;;;;;3.08;0.88;;;;;;;;;;5038952;28;20402;-63
2022/08/21 06:05:00;;;;;;;3.17;0.80;;;;;;;;;;5042434;28;20033;-62
2022/08/21 06:07:26;;;;;;;3.75;0.90;;;;;;;;;;5039141;28;20041;-63
2022/08/21 06:09:53;;;;;;;4.53;1.00;;;;;;;;;;5033389;28;20050;-63
2022/08/21 06:12:19;;;;;;;3.58;0.90;;;;;;;;;;5041660;28;20029;-63
2022/08/21 06:14:45;;;;;;;2.80;0.95;;;;;;;;;;5038428;28;20032;-63
2022/08/21 06:17:13;;;;;;;4.72;0.85;;;;;;;;;;5036681;28;20045;-63
2022/08/21 06:19:39;;;;;;;4.85;1.00;;;;;;;;;;5035425;28;20126;-63
2022/08/21 06:22:05;;;;;;;4.20;0.90;;;;;;;;;;5039447;28;20438;-63
2022/08/21 06:24:32;;;;;;;1.98;0.80;;;;;;;;;;5038358;28;20024;-63
2022/08/21 06:26:58;;;;;;;6.22;0.80;;;;;;;;;;5043666;28;20431;-63
2022/08/21 06:29:24;;;;;;;3.47;0.70;;;;;;;;;;5040237;28;20082;-63
2022/08/21 06:31:52;;;;;;;4.00;1.00;;;;;;;;;;5041920;28;20036;-63
2022/08/21 06:34:19;;;;;;;3.30;1.00;;;;;;;;;;5039107;28;20043;-63
2022/08/21 06:36:45;;;;;;;2.92;0.90;;;;;;;;;;5039196;28;20065;-63
2022/08/21 06:39:13;;;;;;;3.38;0.98;;;;;;;;;;5040553;28;20028;-62
2022/08/21 06:41:39;;;;;;;3.65;1.13;;;;;;;;;;5037827;28;20442;-62
2022/08/21 06:44:05;;;;;;;2.60;0.80;;;;;;;;;;5040630;28;20024;-62
2022/08/21 06:46:31;;;;;;;4.75;1.00;;;;;;;;;;5043210;28;20074;-62
2022/08/21 06:48:58;;;;;;;3.80;0.90;;;;;;;;;;5040877;28;20330;-62
2022/08/21 06:51:28;;;;;;;4.80;1.17;;;;;;;;;;5039245;28;20036;-62
2022/08/21 06:53:54;;;;;;;5.35;1.20;;;;;;;;;;5043394;28;20374;-63
2022/08/21 06:56:20;;;;;;;5.60;1.10;;;;;;;;;;5039603;28;20031;-61
2022/08/21 06:58:46;;;;;;;6.78;1.40;;;;;;;;;;5036994;28;20533;-61
2022/08/21 07:01:12;;;;;;;4.07;0.90;;;;;;;;;;5043702;28;20028;-63
2022/08/21 07:03:42;;;;;;;3.83;1.05;;;;;;;;;;5039600;28;20062;-64
2022/08/21 07:06:09;;;;;;;5.07;1.10;;;;;;;;;;5039499;28;20439;-61
2022/08/21 07:08:36;;;;;;;5.50;0.98;;;;;;;;;;5053320;28;20466;-62
2022/08/21 07:11:03;;;;;;;4.20;1.17;;;;;;;;;;5042033;28;20164;-62
2022/08/21 07:13:30;;;;;;;4.57;1.08;;;;;;;;;;5048032;28;20478;-63
2022/08/21 07:15:56;;;;;;;3.35;0.90;;;;;;;;;;5043468;28;20031;-61
2022/08/21 07:18:22;;;;;;;7.55;1.20;;;;;;;;;;5043506;28;20096;-62
2022/08/21 07:20:48;;;;;;;6.15;1.00;;;;;;;;;;5041722;28;20041;-61
2022/08/21 07:23:26;;;;;;;4.90;1.02;;;;;;;;;;5042108;28;20036;-61
2022/08/21 07:25:52;;;;;;;5.40;1.08;;;;;;;;;;5042186;28;20777;-61
2022/08/21 07:28:19;;;;;;;7.80;1.27;;;;;;;;;;5043303;28;20097;-62
2022/08/21 07:30:45;;;;;;;4.25;1.20;;;;;;;;;;5043414;28;20660;-62
2022/08/21 07:33:11;;;;;;;6.05;1.02;;;;;;;;;;5046890;28;20020;-65
2022/08/21 07:35:37;;;;;;;6.72;1.10;;;;;;;;;;5041322;28;20916;-62
2022/08/21 07:38:03;;;;;;;3.92;0.98;;;;;;;;;;5043678;28;20035;-62
2022/08/21 07:40:29;;;;;;;3.10;1.00;;;;;;;;;;5038395;28;20043;-62
2022/08/21 07:42:56;;;;;;;2.97;0.90;;;;;;;;;;5045519;28;20029;-62
2022/08/21 07:45:24;;;;;;;3.08;0.85;;;;;;;;;;5042621;28;20612;-65
2022/08/21 07:47:50;;;;;;;6.38;1.52;;;;;;;;;;5041954;28;20620;-65
2022/08/21 07:50:16;;;;;;;2.65;0.70;;;;;;;;;;5040189;28;20044;-64
2022/08/21 07:52:43;;;;;;;3.22;0.80;;;;;;;;;;5037547;28;20048;-65
2022/08/21 07:55:15;;;;;;;3.70;0.95;;;;;;;;;;5041688;28;20075;-64
2022/08/21 07:57:41;;;;;;;5.45;0.90;;;;;;;;;;5041300;28;20420;-64
2022/08/21 08:00:09;;;;;;;3.88;0.80;;;;;;;;;;5039143;28;20028;-65
2022/08/21 08:02:35;;;;;;;3.08;0.90;;;;;;;;;;5037026;28;20482;-65
2022/08/21 08:05:03;;;;;;;4.38;0.90;;;;;;;;;;5043743;28;20025;-64
2022/08/21 08:07:29;;;;;;;4.00;1.00;;;;;;;;;;5041512;28;20031;-65
2022/08/21 08:09:55;;;;;;;3.28;0.73;;;;;;;;;;5044296;28;20519;-64
2022/08/21 08:12:21;;;;;;;4.18;0.88;;;;;;;;;;5051027;28;20020;-64
2022/08/21 08:14:47;;;;;;;3.33;1.10;;;;;;;;;;5041423;28;20429;-64
2022/08/21 08:17:13;;;;;;;3.95;0.93;;;;;;;;;;5039665;28;20037;-65
2022/08/21 08:19:40;;;;;;;4.20;0.80;;;;;;;;;;5048240;28;20031;-65
2022/08/21 08:22:19;;;;;;;3.15;0.70;;;;;;;;;;5055381;28;20128;-65
2022/08/21 08:24:46;;;;;;;2.75;0.80;;;;;;;;;;5051307;28;20072;-66
2022/08/21 08:27:12;;;;;;;3.28;0.63;;;;;;;;;;5052483;28;20397;-64
2022/08/21 08:29:38;;;;;;;2.97;0.77;;;;;;;;;;5049266;28;20028;-65
2022/08/21 08:32:07;;;;;;;7.03;0.90;;;;;;;;;;5050834;28;20055;-64
2022/08/21 08:34:33;;;;;;;3.25;0.70;;;;;;;;;;5055704;28;20389;-65
2022/08/21 08:36:59;;;;;;;2.20;0.52;;;;;;;;;;5049044;28;20679;-64
2022/08/21 08:39:26;;;;;;;2.65;0.50;;;;;;;;;;5043693;28;20270;-64
2022/08/21 08:41:56;;;;;;;5.40;0.80;;;;;;;;;;5047743;28;20020;-63
2022/08/21 08:44:23;;;;;;;3.20;0.90;;;;;;;;;;5056218;28;20534;-65
2022/08/21 08:46:51;;;;;;;4.47;0.75;;;;;;;;;;5053828;28;20024;-65
2022/08/21 08:49:24;;;;;;;2.78;0.70;;;;;;;;;;5053117;28;20381;-65
2022/08/21 08:52:00;;;;;;;4.25;0.90;;;;;;;;;;5045809;28;20080;-63
2022/08/21 08:54:40;;;;;;;3.15;0.68;;;;;;;;;;5040525;28;20377;-65
2022/08/21 08:57:10;;;;;;;2.78;0.90;;;;;;;;;;5050963;28;20470;-65
2022/08/21 08:59:42;;;;;;;4.35;0.85;;;;;;;;;;5041848;28;20032;-65
2022/08/21 09:02:10;;;;;;;3.30;0.75;;;;;;;;;;5054411;28;20478;-64
2022/08/21 09:04:36;;;;;;;5.53;1.00;;;;;;;;;;5048272;28;20032;-64
2022/08/21 09:07:13;;;;;;;3.90;0.80;;;;;;;;;;5039546;28;20032;-64
2022/08/21 09:09:59;;;;;;;3.38;0.82;;;;;;;;;;5046384;28;20032;-64
2022/08/21 09:12:25;;;;;;;3.08;0.75;;;;;;;;;;5051634;28;20634;-64
2022/08/21 09:14:52;;;;;;;4.47;0.98;;;;;;;;;;5052303;28;20381;-65
2022/08/21 09:17:37;;;;;;;4.43;0.90;;;;;;;;;;5054518;28;20024;-64
2022/08/21 09:20:07;;;;;;;5.03;0.80;;;;;;;;;;5054137;28;20037;-66
2022/08/21 09:22:33;;;;;;;3.58;0.90;;;;;;;;;;5056430;28;20152;-65
2022/08/21 09:25:08;;;;;;;4.43;0.80;;;;;;;;;;5050329;28;20028;-64
2022/08/21 09:27:36;;;;;;;4.40;0.88;;;;;;;;;;5051343;28;20039;-64
2022/08/21 09:30:04;;;;;;;2.55;0.80;;;;;;;;;;5053926;28;20047;-65
2022/08/21 09:32:31;;;;;;;3.35;0.80;;;;;;;;;;5041485;28;20029;-65
2022/08/21 09:35:03;;;;;;;3.60;0.93;;;;;;;;;;5055349;28;20063;-65
2022/08/21 09:37:31;;;;;;;2.08;0.63;;;;;;;;;;5048951;28;20534;-64
2022/08/21 09:39:58;;;;;;;1.80;0.70;;;;;;;;;;5046725;28;20420;-65
2022/08/21 09:42:27;;;;;;;3.25;0.70;;;;;;;;;;5042942;28;20032;-66
2022/08/21 09:45:09;;;;;;;2.88;0.80;;;;;;;;;;5050285;28;20035;-63
2022/08/21 09:47:35;;;;;;;2.58;0.90;;;;;;;;;;5041735;28;20037;-65
2022/08/21 09:50:10;;;;;;;3.05;0.90;;;;;;;;;;5046635;28;20024;-65
2022/08/21 09:52:43;;;;;;;2.78;0.75;;;;;;;;;;5051854;28;20051;-65
2022/08/21 09:57:38;;;;;;;6.03;1.08;;;;;;;;;;5071242;28;20669;-64
2022/08/21 09:58:01;;;;;;;3.75;0.80;;;;;;;;;;5050991;28;20328;-65
2022/08/21 10:00:33;;;;;;;4.32;0.80;;;;;;;;;;5045796;28;20731;-67
2022/08/21 10:03:13;;;;;;;4.22;0.77;;;;;;;;;;5049605;28;20024;-64
2022/08/21 10:05:40;;;;;;;3.58;0.70;;;;;;;;;;5041436;28;20573;-65
2022/08/21 10:08:16;;;;;;;4.55;0.80;;;;;;;;;;5050637;28;21026;-64
2022/08/21 10:10:42;;;;;;;3.65;0.52;;;;;;;;;;5047637;28;20028;-65
2022/08/21 10:13:23;;;;;;;2.92;0.65;;;;;;;;;;5047855;28;20016;-64
2022/08/21 10:15:57;;;;;;;4.40;0.63;;;;;;;;;;5052163;28;20040;-64
2022/08/21 10:18:23;;;;;;;2.83;0.52;;;;;;;;;;5056020;28;20039;-64
2022/08/21 10:20:58;;;;;;;2.33;0.57;;;;;;;;;;5054308;28;20081;-65
2022/08/21 10:23:34;;;;;;;3.07;0.70;;;;;;;;;;5048797;28;20028;-65
2022/08/21 10:26:21;;;;;;;4.20;0.75;;;;;;;;;;5041880;28;20272;-65
2022/08/21 10:29:00;;;;;;;3.10;0.60;;;;;;;;;;5043608;28;20355;-65
2022/08/21 10:31:35;;;;;;;1.48;0.50;;;;;;;;;;5043789;28;20047;-64
2022/08/21 10:34:08;;;;;;;1.15;0.40;;;;;;;;;;5055448;28;20032;-65
2022/08/21 10:36:40;;;;;;;1.35;0.52;;;;;;;;;;5047701;28;20024;-65
2022/08/21 10:39:41;;;;;;;1.75;0.50;;;;;;;;;;5042130;28;20045;-66
2022/08/21 10:42:30;;;;;;;2.35;0.40;;;;;;;;;;4988632;28;20132;-67
2022/08/21 10:45:02;;;;;;;1.75;0.60;;;;;;;;;;4973152;28;20041;-64
2022/08/21 10:47:35;;;;;;;1.58;0.50;;;;;;;;;;4990290;28;20129;-65
2022/08/21 10:50:07;;;;;;;3.15;0.80;;;;;;;;;;4995230;28;20189;-66
2022/08/21 10:52:39;;;;;;;3.88;0.70;;;;;;;;;;4980915;28;20689;-65
2022/08/21 10:55:09;;;;;;;2.53;0.60;;;;;;;;;;4992866;28;20034;-66
2022/08/21 10:57:44;;;;;;;1.98;0.50;;;;;;;;;;4992249;28;20042;-66
2022/08/21 11:00:12;;;;;;;2.42;0.60;;;;;;;;;;4993767;28;20033;-66
2022/08/21 11:02:46;;;;;;;2.72;0.85;;;;;;;;;;4994022;28;20045;-64
2022/08/21 11:05:14;;;;;;;1.30;0.55;;;;;;;;;;4980825;28;20060;-65
2022/08/21 11:07:57;;;;;;;2.72;0.60;;;;;;;;;;4992434;28;20033;-65
2022/08/21 11:10:26;;;;;;;4.20;0.70;;;;;;;;;;5003218;28;20139;-65
2022/08/21 11:13:02;;;;;;;3.03;0.70;;;;;;;;;;4976932;28;20052;-65
2022/08/21 11:15:35;;;;;;;2.25;0.50;;;;;;;;;;5000816;28;20043;-66
2022/08/21 11:18:22;;;;;;;1.35;0.50;;;;;;;;;;5052644;28;20803;-65
2022/08/21 11:20:59;;;;;;;3.60;1.00;;;;;;;;;;5046010;28;20141;-65
2022/08/21 11:23:37;;;;;;;2.45;0.75;;;;;;;;;;5049812;28;20081;-64
2022/08/21 11:26:08;;;;;;;4.10;0.80;;;;;;;;;;5051149;28;20039;-63
2022/08/21 11:28:38;;;;;;;4.22;0.95;;;;;;;;;;5053593;28;20536;-65
2022/08/21 11:31:12;;;;;;;3.30;0.75;;;;;;;;;;5054588;28;20105;-65
2022/08/21 11:33:51;;;;;;;2.92;0.70;;;;;;;;;;5061509;28;20044;-65
2022/08/21 11:36:17;;;;;;;2.55;0.52;;;;;;;;;;5053672;28;20677;-65
2022/08/21 11:38:47;;;;;;;2.90;0.57;;;;;;;;;;5056086;28;20033;-66
2022/08/21 11:41:22;;;;;;;2.40;0.60;;;;;;;;;;5057537;28;20082;-67
2022/08/21 11:43:51;;;;;;;3.92;0.60;;;;;;;;;;5051989;28;20043;-65
2022/08/21 11:46:20;;;;;;;2.35;0.52;;;;;;;;;;5054579;28;20490;-66
2022/08/21 11:48:58;;;;;;;3.95;0.70;;;;;;;;;;5058338;28;20068;-65
2022/08/21 11:51:44;;;;;;;2.95;0.60;;;;;;;;;;5072396;28;20068;-66
2022/08/21 11:54:10;;;;;;;2.28;0.60;;;;;;;;;;5051857;28;20048;-68
2022/08/21 11:56:41;;;;;;;2.33;0.68;;;;;;;;;;5053322;28;20028;-66
2022/08/21 11:59:28;;;;;;;3.67;0.70;;;;;;;;;;5058251;28;20027;-67
2022/08/21 12:01:54;;;;;;;4.15;0.70;;;;;;;;;;5052476;28;20066;-68
2022/08/21 12:04:36;;;;;;;1.65;0.40;;;;;;;;;;5056310;28;20052;-68
2022/08/21 12:07:34;;;;;;;3.45;0.80;;;;;;;;;;5056250;28;20080;-67
2022/08/21 12:10:01;;;;;;;2.42;0.70;;;;;;;;;;5004542;28;20131;-68
2022/08/21 12:12:29;;;;;;;1.42;0.40;;;;;;;;;;5005390;28;20056;-67
2022/08/21 12:15:06;;;;;;;3.65;0.55;;;;;;;;;;5007250;28;20414;-67
2022/08/21 12:17:37;;;;;;;2.55;0.40;;;;;;;;;;5003496;28;20415;-67
2022/08/21 12:20:24;;;;;;;2.00;0.50;;;;;;;;;;5004761;28;20145;-68
2022/08/21 12:22:53;;;;;;;3.25;0.65;;;;;;;;;;5006036;28;20072;-68
2022/08/21 12:25:20;;;;;;;3.22;0.50;;;;;;;;;;5006113;28;20526;-66
2022/08/21 12:28:03;;;;;;;3.50;0.40;;;;;;;;;;5005033;28;20033;-68
2022/08/21 12:30:29;;;;;;;2.33;0.50;;;;;;;;;;4987113;28;20026;-67
2022/08/21 12:32:58;;;;;;;2.67;0.60;;;;;;;;;;5006916;28;20542;-66
2022/08/21 12:35:31;;;;;;;2.50;0.70;;;;;;;;;;5006354;28;20034;-67
2022/08/21 12:38:03;;;;;;;1.38;0.47;;;;;;;;;;5006329;28;20124;-66
2022/08/21 12:40:32;;;;;;;2.25;0.40;;;;;;;;;;4985676;28;20032;-66
2022/08/21 12:43:01;;;;;;;4.30;0.80;;;;;;;;;;5007256;28;20159;-67
2022/08/21 12:45:32;;;;;;;3.60;0.60;;;;;;;;;;5018118;28;20185;-67
2022/08/21 12:48:10;;;;;;;3.47;0.43;;;;;;;;;;5039967;28;20119;-66
2022/08/21 12:50:40;;;;;;;3.17;0.50;;;;;;;;;;5042497;28;20445;-67
2022/08/21 12:53:09;;;;;;;2.10;0.50;;;;;;;;;;5044026;28;20128;-65
2022/08/21 12:55:40;;;;;;;2.63;0.60;;;;;;;;;;5040514;28;20036;-66
2022/08/21 12:58:06;;;;;;;5.38;0.70;;;;;;;;;;5050960;28;20158;-66
2022/08/21 13:00:33;;;;;;;2.65;0.55;;;;;;;;;;5053068;28;20039;-67
2022/08/21 13:03:00;;;;;;;3.22;0.70;;;;;;;;;;5052787;28;20115;-66
2022/08/21 13:05:32;;;;;;;2.00;0.40;;;;;;;;;;5047207;28;20343;-66
2022/08/21 13:07:59;;;;;;;3.45;0.60;;;;;;;;;;5049161;28;20412;-66
2022/08/21 13:10:28;;;;;;;3.08;0.60;;;;;;;;;;5047790;28;20066;-66
2022/08/21 13:12:59;;;;;;;4.95;0.77;;;;;;;;;;5049050;28;20031;-66
2022/08/21 13:15:27;;;;;;;3.40;0.73;;;;;;;;;;5046740;28;20043;-65
2022/08/21 13:17:53;;;;;;;1.65;0.50;;;;;;;;;;5048118;28;20268;-66
2022/08/21 13:20:21;;;;;;;2.95;0.60;;;;;;;;;;5043916;28;20032;-66
2022/08/21 13:22:47;;;;;;;2.03;0.47;;;;;;;;;;5046104;28;20516;-65
2022/08/21 13:25:15;;;;;;;3.47;1.10;;;;;;;;;;5048969;28;20119;-66
2022/08/21 13:27:43;;;;;;;3.55;0.70;;;;;;;;;;5046813;28;20165;-66
2022/08/21 13:30:13;;;;;;;3.22;0.60;;;;;;;;;;5049718;28;20652;-65
2022/08/21 13:32:42;;;;;;;2.90;0.52;;;;;;;;;;5044764;28;20426;-65
2022/08/21 13:35:11;;;;;;;2.25;0.40;;;;;;;;;;5049441;28;20058;-66
2022/08/21 13:37:39;;;;;;;3.55;0.70;;;;;;;;;;5044550;28;20643;-65
2022/08/21 13:40:07;;;;;;;2.17;0.43;;;;;;;;;;5047346;28;20029;-66
2022/08/21 13:42:33;;;;;;;3.25;0.60;;;;;;;;;;5046097;28;20017;-66
2022/08/21 13:44:59;;;;;;;3.35;0.70;;;;;;;;;;5047900;28;20036;-65
2022/08/21 13:47:26;;;;;;;3.25;0.70;;;;;;;;;;5046037;28;20050;-66
2022/08/21 13:49:53;;;;;;;3.75;0.57;;;;;;;;;;5067105;28;20029;-66
2022/08/21 13:52:21;;;;;;;2.15;0.50;;;;;;;;;;5051076;28;20036;-66
2022/08/21 13:54:55;;;;;;;2.30;0.50;;;;;;;;;;5044457;28;20055;-66
2022/08/21 13:57:32;;;;;;;1.63;0.50;;;;;;;;;;5046679;28;20478;-66
2022/08/21 14:00:12;;;;;;;3.30;0.65;;;;;;;;;;5050867;28;20028;-65
2022/08/21 14:02:40;;;;;;;2.17;0.43;;;;;;;;;;5045001;28;20036;-66
2022/08/21 14:05:07;;;;;;;3.22;0.60;;;;;;;;;;5054350;28;20036;-66
2022/08/21 14:07:35;;;;;;;4.70;0.50;;;;;;;;;;5041988;28;20035;-66
2022/08/21 14:10:05;;;;;;;3.55;0.35;;;;;;;;;;5042094;28;20028;-66
2022/08/21 14:12:49;;;;;;;3.40;0.60;;;;;;;;;;5039031;28;20023;-66
2022/08/21 14:15:17;;;;;;;2.42;0.50;;;;;;;;;;5045901;28;20047;-65
2022/08/21 14:17:43;;;;;;;2.33;0.50;;;;;;;;;;5038329;28;20424;-66
2022/08/21 14:20:11;;;;;;;3.60;0.50;;;;;;;;;;5042256;28;20426;-66
2022/08/21 14:22:37;;;;;;;2.88;0.70;;;;;;;;;;5044712;28;20675;-66
2022/08/21 14:25:10;;;;;;;4.13;0.45;;;;;;;;;;5043574;28;20031;-66
2022/08/21 14:27:39;;;;;;;4.82;0.73;;;;;;;;;;5042454;28;20465;-66
2022/08/21 14:30:16;;;;;;;3.47;0.50;;;;;;;;;;5038576;28;20112;-66
2022/08/21 14:32:43;;;;;;;3.30;0.57;;;;;;;;;;5041163;28;20053;-66
2022/08/21 14:35:10;;;;;;;2.63;0.60;;;;;;;;;;5041541;28;20024;-66
2022/08/21 14:37:36;;;;;;;1.52;0.50;;;;;;;;;;5040618;28;20427;-66
2022/08/21 14:40:04;;;;;;;4.43;0.63;;;;;;;;;;5041309;28;20032;-67
2022/08/21 14:42:30;;;;;;;1.92;0.57;;;;;;;;;;5041108;28;20043;-66
2022/08/21 14:44:59;;;;;;;3.25;0.70;;;;;;;;;;5042641;28;20032;-64
2022/08/21 14:47:25;;;;;;;2.70;0.80;;;;;;;;;;5040953;28;20040;-66
2022/08/21 14:49:53;;;;;;;3.08;0.60;;;;;;;;;;5037592;28;20032;-66
2022/08/21 14:52:20;;;;;;;3.10;0.70;;;;;;;;;;5034779;28;20072;-66